Urb El Duque, Puerto Rico
Current Conditions -  °F | °C
As of 1:53 PM on Friday 21 Nov 2014 (Local Time) from TJNR Reporting Station
Broken Clouds Broken Clouds  
Wind Chill: 82°   Ceiling: 3600
Heat Index: 89°   Visibility: 10mi
Dew Point: 76°   Wind: 7mph
Humidity: 82%   Direction: 80°E
Pressure: 30"   Gusts: NA
Location:  18.2147°N, 65.7358°W
Report Text: TJNR 211753Z AUTO 08006KT 10SM SCT026 BKN036 BKN055 28/24 A3000 RMK AO2 RAB30E48 SLP157 P0003 60003 T02780244 10300 20256 58023 $
Loading
Personal Weather Stations






























Interactive Weather Map New forecast layout! Learn more

10-Day Weather Forecast

Advertisements
Track Severe Weather on mobile